Time;durP1;ratioP1;P1;durP2;ratioP2;P2;SDS_P1;SDS_P2;PMS_P1;PMS_P2;Temp;Humidity;BMP_temperature;BMP_pressure;BME280_temperature;BME280_humidity;BME280_pressure;Samples;Min_cycle;Max_cycle;Signal;HPM_P1;HPM_P2
2022/07/28 10:36:12;;;;;;;0.68;0.50;;;;;;;26.35;37.11;99461.23;1667477;85;21087;-74
2022/07/28 10:38:42;;;;;;;3.42;0.90;;;;;;;26.31;36.64;99462.55;1658448;84;22267;-73
2022/07/28 10:41:08;;;;;;;6.42;0.90;;;;;;;26.28;36.94;99456.67;1654045;85;21098;-72
2022/07/28 10:43:37;;;;;;;3.00;0.90;;;;;;;26.37;37.19;99463.73;1669111;85;21087;-71
2022/07/28 10:46:04;;;;;;;1.00;0.72;;;;;;;26.47;36.55;99449.73;1658309;84;21527;-76
2022/07/28 10:48:32;;;;;;;2.05;0.80;;;;;;;26.55;36.41;99462.25;1647125;85;21232;-74
2022/07/28 10:50:58;;;;;;;0.90;0.80;;;;;;;26.59;35.87;99467.56;1645170;84;21211;-74
2022/07/28 10:53:30;;;;;;;3.52;1.15;;;;;;;26.57;35.42;99460.25;1642459;87;22049;-73
2022/07/28 10:56:06;;;;;;;7.90;1.20;;;;;;;26.54;35.29;99465.41;1642262;85;21060;-72
2022/07/28 10:59:16;;;;;;;3.05;0.72;;;;;;;26.54;34.71;99464.58;1651694;85;21031;-74
2022/07/28 11:01:43;;;;;;;9.28;1.05;;;;;;;26.56;35.54;99460.75;1670564;85;21908;-75
2022/07/28 11:04:39;;;;;;;6.50;1.00;;;;;;;26.61;35.24;99458.89;1671256;85;21145;-73
2022/07/28 11:07:14;;;;;;;2.02;0.95;;;;;;;26.66;34.53;99453.90;1666509;84;21074;-75
2022/07/28 11:09:40;;;;;;;2.92;0.80;;;;;;;26.67;34.25;99459.58;1670327;84;21003;-73
2022/07/28 11:12:08;;;;;;;1.40;0.88;;;;;;;26.65;34.13;99456.23;1671975;85;20995;-73
2022/07/28 11:14:37;;;;;;;2.22;0.72;;;;;;;26.68;34.04;99452.73;1672288;84;21222;-74
2022/07/28 11:17:12;;;;;;;2.70;0.88;;;;;;;26.77;33.41;99454.92;1652311;84;21512;-74
2022/07/28 11:19:49;;;;;;;3.80;0.68;;;;;;;26.85;33.74;99451.39;1641496;85;21051;-72
2022/07/28 11:22:23;;;;;;;4.10;0.78;;;;;;;26.94;33.02;99455.27;1641856;87;21515;-77
2022/07/28 11:25:03;;;;;;;4.85;0.88;;;;;;;26.95;33.30;99451.59;1642274;87;21111;-72
2022/07/28 11:27:45;;;;;;;0.95;0.82;;;;;;;26.96;33.06;99453.27;1642692;87;21208;-74
2022/07/28 11:30:19;;;;;;;8.13;0.90;;;;;;;26.98;33.00;99443.22;1653287;85;21069;-75
2022/07/28 11:32:55;;;;;;;3.33;0.70;;;;;;;26.97;33.56;99459.44;1649676;85;21140;-77
2022/07/28 11:35:25;;;;;;;7.87;1.12;;;;;;;26.95;33.79;99456.10;1671501;85;21542;-76
2022/07/28 11:38:06;;;;;;;4.87;0.60;;;;;;;26.94;33.55;99458.41;1648774;85;21136;-76
2022/07/28 11:40:42;;;;;;;0.80;0.70;;;;;;;26.93;33.38;99460.73;1623716;87;21676;-77
2022/07/28 11:43:28;;;;;;;3.17;0.82;;;;;;;26.99;33.13;99464.91;1649180;84;21066;-77
2022/07/28 11:46:10;;;;;;;1.50;0.85;;;;;;;27.05;32.77;99459.41;1668704;84;21095;-76
2022/07/28 11:48:40;;;;;;;5.37;0.57;;;;;;;27.10;33.49;99467.75;1669495;85;21124;-77
2022/07/28 11:51:10;;;;;;;1.90;0.80;;;;;;;27.11;32.29;99468.09;1668210;84;21860;-77
2022/07/28 11:53:44;;;;;;;1.00;0.80;;;;;;;27.07;32.43;99462.25;1642889;85;21971;-76
2022/07/28 11:56:14;;;;;;;1.35;0.80;;;;;;;27.08;32.25;99456.41;1645357;85;21121;-77
2022/07/28 11:58:42;;;;;;;0.85;0.80;;;;;;;27.12;32.19;99455.08;1660248;85;21367;-77
2022/07/28 12:01:14;;;;;;;3.27;0.80;;;;;;;27.21;32.51;99451.36;1670840;85;21114;-76
2022/07/28 12:03:41;;;;;;;4.60;1.07;;;;;;;27.26;32.61;99449.53;1665433;84;21032;-75
2022/07/28 12:06:09;;;;;;;2.72;0.90;;;;;;;27.26;32.34;99458.88;1641076;86;21126;-75
2022/07/28 12:09:03;;;;;;;1.52;0.80;;;;;;;27.26;33.05;99457.53;1624638;88;21113;-75
2022/07/28 12:11:35;;;;;;;1.00;0.90;;;;;;;27.26;32.50;99454.37;1612503;88;21171;-76
2022/07/28 12:14:10;;;;;;;3.75;0.90;;;;;;;27.27;32.40;99449.36;1613107;88;21451;-78
2022/07/28 12:16:40;;;;;;;3.47;0.80;;;;;;;27.26;32.04;99446.86;1611853;88;21073;-75
2022/07/28 12:19:09;;;;;;;0.75;0.70;;;;;;;27.26;31.50;99449.53;1630279;86;21499;-77
2022/07/28 12:21:42;;;;;;;1.95;0.90;;;;;;;27.27;32.42;99452.53;1626817;87;21595;-77
2022/07/28 12:24:16;;;;;;;2.37;0.78;;;;;;;27.25;31.88;99455.37;1607351;88;21101;-75
2022/07/28 12:26:52;;;;;;;1.67;0.55;;;;;;;27.24;31.94;99451.53;1652875;85;21447;-75
2022/07/28 12:29:20;;;;;;;1.98;0.80;;;;;;;27.31;31.16;99449.35;1654673;85;21128;-74
2022/07/28 12:31:54;;;;;;;0.93;0.78;;;;;;;27.31;31.27;99445.84;1643017;85;21544;-74
2022/07/28 12:34:29;;;;;;;4.47;3.20;;;;;;;27.33;31.52;99451.86;1638429;85;22129;-75
2022/07/28 12:37:03;;;;;;;4.03;0.90;;;;;;;27.32;31.63;99444.84;1645266;85;21167;-74
2022/07/28 12:39:38;;;;;;;1.67;1.57;;;;;;;27.28;31.89;99451.53;1639309;85;21048;-75
2022/07/28 12:42:09;;;;;;;3.00;2.72;;;;;;;27.25;31.75;99451.36;1653275;86;21074;-75
2022/07/28 12:44:42;;;;;;;1.05;0.98;;;;;;;27.26;32.23;99444.19;1653580;86;21826;-74
2022/07/28 12:47:11;;;;;;;2.42;1.20;;;;;;;27.33;31.74;99450.52;1646530;85;20998;-74
2022/07/28 12:49:39;;;;;;;1.42;0.90;;;;;;;27.35;31.89;99432.49;1627347;88;21100;-74
2022/07/28 12:52:27;;;;;;;3.08;0.90;;;;;;;27.38;31.45;99441.47;1640391;86;21048;-75
2022/07/28 12:54:54;;;;;;;2.12;1.17;;;;;;;27.36;31.04;99451.52;1650879;85;22264;-75
2022/07/28 12:57:41;;;;;;;1.00;0.80;;;;;;;27.35;31.20;99444.52;1636439;85;21097;-74
2022/07/28 13:00:11;;;;;;;1.15;1.00;;;;;;;27.36;30.74;99441.67;1653851;86;20993;-75
2022/07/28 13:02:39;;;;;;;0.95;0.80;;;;;;;27.36;30.67;99444.34;1658223;85;21090;-75
2022/07/28 13:05:09;;;;;;;2.05;1.00;;;;;;;27.34;30.07;99430.33;1651821;85;21053;-75
2022/07/28 13:07:38;;;;;;;6.15;1.22;;;;;;;27.36;30.63;99437.66;1654094;85;21079;-76
2022/07/28 13:10:09;;;;;;;8.15;0.98;;;;;;;27.42;30.88;99441.46;1647479;85;21146;-76
2022/07/28 13:12:37;;;;;;;4.00;0.90;;;;;;;27.41;30.48;99435.79;1654979;85;21040;-77
2022/07/28 13:15:14;;;;;;;5.20;1.00;;;;;;;27.42;30.33;99444.13;1649247;85;21556;-76
2022/07/28 13:18:40;;;;;;;5.20;0.88;;;;;;;27.42;30.41;99449.48;1647060;85;21567;-81
2022/07/28 13:21:15;;;;;;;7.53;1.22;;;;;;;27.46;29.96;99449.47;1664316;85;21125;-78
2022/07/28 13:27:57;;;;;;;1.32;0.70;;;;;;;27.50;29.85;99453.97;1675331;84;21111;-76
